sensor_id;sensor_type;location;lat;lon;timestamp;pressure;altitude;pressure_sealevel;temperature
67758;BMP180;54562;47.620;18.786;2023-01-31T00:02:30;98078.80;;;1.80
67758;BMP180;54562;47.620;18.786;2023-01-31T00:05:35;98067.40;;;1.84
67758;BMP180;54562;47.620;18.786;2023-01-31T00:08:41;98071.40;;;1.88
67758;BMP180;54562;47.620;18.786;2023-01-31T00:11:46;98077.00;;;1.90
67758;BMP180;54562;47.620;18.786;2023-01-31T00:14:51;98080.80;;;1.90
67758;BMP180;54562;47.620;18.786;2023-01-31T00:17:56;98086.60;;;1.90
67758;BMP180;54562;47.620;18.786;2023-01-31T00:21:08;98083.20;;;1.90
67758;BMP180;54562;47.620;18.786;2023-01-31T00:24:15;98074.00;;;1.96
67758;BMP180;54562;47.620;18.786;2023-01-31T00:27:22;98076.20;;;2.00
67758;BMP180;54562;47.620;18.786;2023-01-31T00:30:27;98075.00;;;2.00
67758;BMP180;54562;47.620;18.786;2023-01-31T00:33:33;98083.60;;;2.04
67758;BMP180;54562;47.620;18.786;2023-01-31T00:36:38;98088.60;;;2.08
67758;BMP180;54562;47.620;18.786;2023-01-31T00:39:43;98095.00;;;2.10
67758;BMP180;54562;47.620;18.786;2023-01-31T00:42:48;98104.80;;;2.10
67758;BMP180;54562;47.620;18.786;2023-01-31T00:45:53;98105.40;;;2.10
67758;BMP180;54562;47.620;18.786;2023-01-31T00:48:58;98106.20;;;2.20
67758;BMP180;54562;47.620;18.786;2023-01-31T00:52:04;98098.00;;;2.20
67758;BMP180;54562;47.620;18.786;2023-01-31T00:55:10;98108.40;;;2.20
67758;BMP180;54562;47.620;18.786;2023-01-31T00:58:15;98100.60;;;2.20
67758;BMP180;54562;47.620;18.786;2023-01-31T01:01:24;98110.20;;;2.20
67758;BMP180;54562;47.620;18.786;2023-01-31T01:04:29;98111.20;;;2.20
67758;BMP180;54562;47.620;18.786;2023-01-31T01:07:35;98117.80;;;2.20
67758;BMP180;54562;47.620;18.786;2023-01-31T01:10:40;98115.80;;;2.20
67758;BMP180;54562;47.620;18.786;2023-01-31T01:13:46;98110.20;;;2.20
67758;BMP180;54562;47.620;18.786;2023-01-31T01:16:50;98114.00;;;2.20
67758;BMP180;54562;47.620;18.786;2023-01-31T01:19:57;98113.00;;;2.20
67758;BMP180;54562;47.620;18.786;2023-01-31T01:23:06;98114.40;;;2.10
67758;BMP180;54562;47.620;18.786;2023-01-31T01:26:15;98128.00;;;2.10
67758;BMP180;54562;47.620;18.786;2023-01-31T01:29:20;98129.20;;;2.10
67758;BMP180;54562;47.620;18.786;2023-01-31T01:32:24;98127.60;;;2.10
67758;BMP180;54562;47.620;18.786;2023-01-31T01:35:30;98135.20;;;2.10
67758;BMP180;54562;47.620;18.786;2023-01-31T01:38:36;98135.00;;;2.10
67758;BMP180;54562;47.620;18.786;2023-01-31T01:41:41;98144.00;;;2.10
67758;BMP180;54562;47.620;18.786;2023-01-31T01:44:54;98141.00;;;2.10
67758;BMP180;54562;47.620;18.786;2023-01-31T01:48:04;98149.60;;;2.10
67758;BMP180;54562;47.620;18.786;2023-01-31T01:51:14;98155.40;;;2.10
67758;BMP180;54562;47.620;18.786;2023-01-31T01:54:29;98157.20;;;2.10
67758;BMP180;54562;47.620;18.786;2023-01-31T01:57:40;98148.80;;;2.08
67758;BMP180;54562;47.620;18.786;2023-01-31T02:00:49;98156.40;;;2.04
67758;BMP180;54562;47.620;18.786;2023-01-31T02:03:55;98164.60;;;2.00
67758;BMP180;54562;47.620;18.786;2023-01-31T02:07:00;98171.40;;;2.00
67758;BMP180;54562;47.620;18.786;2023-01-31T02:10:13;98168.80;;;2.00
67758;BMP180;54562;47.620;18.786;2023-01-31T02:13:20;98181.60;;;2.00
67758;BMP180;54562;47.620;18.786;2023-01-31T02:16:25;98178.60;;;2.00
67758;BMP180;54562;47.620;18.786;2023-01-31T02:19:41;98186.00;;;2.00
67758;BMP180;54562;47.620;18.786;2023-01-31T02:23:15;98189.20;;;2.00
67758;BMP180;54562;47.620;18.786;2023-01-31T02:26:57;98185.80;;;2.00
67758;BMP180;54562;47.620;18.786;2023-01-31T02:30:38;98179.80;;;2.00
67758;BMP180;54562;47.620;18.786;2023-01-31T02:33:56;98181.00;;;2.00
67758;BMP180;54562;47.620;18.786;2023-01-31T02:37:19;98190.20;;;2.00
67758;BMP180;54562;47.620;18.786;2023-01-31T02:40:36;98190.40;;;2.00
67758;BMP180;54562;47.620;18.786;2023-01-31T02:43:52;98192.80;;;2.00
67758;BMP180;54562;47.620;18.786;2023-01-31T02:47:31;98200.60;;;2.00
67758;BMP180;54562;47.620;18.786;2023-01-31T02:50:45;98203.00;;;1.96
67758;BMP180;54562;47.620;18.786;2023-01-31T02:54:01;98202.00;;;1.92
67758;BMP180;54562;47.620;18.786;2023-01-31T02:57:08;98203.40;;;1.94
67758;BMP180;54562;47.620;18.786;2023-01-31T03:00:16;98198.40;;;2.00
67758;BMP180;54562;47.620;18.786;2023-01-31T03:03:25;98199.00;;;2.00
67758;BMP180;54562;47.620;18.786;2023-01-31T03:06:56;98196.80;;;2.00
67758;BMP180;54562;47.620;18.786;2023-01-31T03:10:18;98197.80;;;2.00
67758;BMP180;54562;47.620;18.786;2023-01-31T03:13:43;98201.60;;;2.00
67758;BMP180;54562;47.620;18.786;2023-01-31T03:16:57;98204.20;;;1.94
67758;BMP180;54562;47.620;18.786;2023-01-31T03:20:28;98200.00;;;1.94
67758;BMP180;54562;47.620;18.786;2023-01-31T03:23:35;98204.60;;;1.90
67758;BMP180;54562;47.620;18.786;2023-01-31T03:26:42;98209.40;;;1.90
67758;BMP180;54562;47.620;18.786;2023-01-31T03:29:48;98211.20;;;1.90
67758;BMP180;54562;47.620;18.786;2023-01-31T03:32:57;98207.40;;;1.90
67758;BMP180;54562;47.620;18.786;2023-01-31T03:39:30;98200.80;;;1.80
67758;BMP180;54562;47.620;18.786;2023-01-31T03:42:45;98201.80;;;1.80
67758;BMP180;54562;47.620;18.786;2023-01-31T03:46:00;98205.60;;;1.80
67758;BMP180;54562;47.620;18.786;2023-01-31T03:49:10;98206.80;;;1.80
67758;BMP180;54562;47.620;18.786;2023-01-31T03:52:21;98201.60;;;1.80
67758;BMP180;54562;47.620;18.786;2023-01-31T03:55:35;98214.40;;;1.70
67758;BMP180;54562;47.620;18.786;2023-01-31T03:58:47;98220.60;;;1.70
67758;BMP180;54562;47.620;18.786;2023-01-31T04:01:57;98223.40;;;1.70
67758;BMP180;54562;47.620;18.786;2023-01-31T04:05:09;98229.00;;;1.70
67758;BMP180;54562;47.620;18.786;2023-01-31T04:08:16;98235.00;;;1.70
67758;BMP180;54562;47.620;18.786;2023-01-31T04:11:25;98242.40;;;1.70
67758;BMP180;54562;47.620;18.786;2023-01-31T04:14:31;98242.00;;;1.70
67758;BMP180;54562;47.620;18.786;2023-01-31T04:17:36;98252.40;;;1.70
67758;BMP180;54562;47.620;18.786;2023-01-31T04:20:41;98261.40;;;1.70
67758;BMP180;54562;47.620;18.786;2023-01-31T04:23:46;98257.60;;;1.64
67758;BMP180;54562;47.620;18.786;2023-01-31T04:26:51;98261.60;;;1.60
67758;BMP180;54562;47.620;18.786;2023-01-31T04:29:56;98270.20;;;1.60
67758;BMP180;54562;47.620;18.786;2023-01-31T04:33:02;98270.20;;;1.60
67758;BMP180;54562;47.620;18.786;2023-01-31T04:36:09;98269.80;;;1.60
67758;BMP180;54562;47.620;18.786;2023-01-31T04:39:15;98280.40;;;1.70
67758;BMP180;54562;47.620;18.786;2023-01-31T04:42:19;98275.40;;;1.70
67758;BMP180;54562;47.620;18.786;2023-01-31T04:45:25;98286.20;;;1.60
67758;BMP180;54562;47.620;18.786;2023-01-31T04:48:30;98286.40;;;1.50
67758;BMP180;54562;47.620;18.786;2023-01-31T04:51:35;98276.60;;;1.50
67758;BMP180;54562;47.620;18.786;2023-01-31T04:54:40;98278.60;;;1.40
67758;BMP180;54562;47.620;18.786;2023-01-31T04:57:45;98289.00;;;1.40
67758;BMP180;54562;47.620;18.786;2023-01-31T05:00:52;98286.60;;;1.40
67758;BMP180;54562;47.620;18.786;2023-01-31T05:03:57;98293.20;;;1.40
67758;BMP180;54562;47.620;18.786;2023-01-31T05:07:02;98297.60;;;1.40
67758;BMP180;54562;47.620;18.786;2023-01-31T05:10:10;98305.60;;;1.48
67758;BMP180;54562;47.620;18.786;2023-01-31T05:13:15;98305.80;;;1.48
67758;BMP180;54562;47.620;18.786;2023-01-31T05:16:21;98314.00;;;1.42
67758;BMP180;54562;47.620;18.786;2023-01-31T05:19:26;98315.00;;;1.40
67758;BMP180;54562;47.620;18.786;2023-01-31T05:22:31;98319.60;;;1.40
67758;BMP180;54562;47.620;18.786;2023-01-31T05:25:37;98329.00;;;1.40
67758;BMP180;54562;47.620;18.786;2023-01-31T05:28:43;98329.40;;;1.36
67758;BMP180;54562;47.620;18.786;2023-01-31T05:31:51;98325.80;;;1.30
67758;BMP180;54562;47.620;18.786;2023-01-31T05:34:56;98331.80;;;1.30
67758;BMP180;54562;47.620;18.786;2023-01-31T05:38:01;98331.00;;;1.30
67758;BMP180;54562;47.620;18.786;2023-01-31T05:41:07;98337.00;;;1.26
67758;BMP180;54562;47.620;18.786;2023-01-31T05:44:12;98331.80;;;1.20
67758;BMP180;54562;47.620;18.786;2023-01-31T05:47:19;98336.40;;;1.20
67758;BMP180;54562;47.620;18.786;2023-01-31T05:50:27;98334.20;;;1.20
67758;BMP180;54562;47.620;18.786;2023-01-31T05:53:32;98337.20;;;1.20
67758;BMP180;54562;47.620;18.786;2023-01-31T05:56:37;98345.00;;;1.20
67758;BMP180;54562;47.620;18.786;2023-01-31T05:59:43;98341.40;;;1.20
67758;BMP180;54562;47.620;18.786;2023-01-31T06:02:48;98339.80;;;1.20
67758;BMP180;54562;47.620;18.786;2023-01-31T06:05:54;98348.60;;;1.22
67758;BMP180;54562;47.620;18.786;2023-01-31T06:08:59;98351.80;;;1.30
67758;BMP180;54562;47.620;18.786;2023-01-31T06:12:05;98344.80;;;1.30
67758;BMP180;54562;47.620;18.786;2023-01-31T06:15:12;98346.40;;;1.30
67758;BMP180;54562;47.620;18.786;2023-01-31T06:18:17;98350.20;;;1.30
67758;BMP180;54562;47.620;18.786;2023-01-31T06:21:23;98357.40;;;1.30
67758;BMP180;54562;47.620;18.786;2023-01-31T06:24:28;98361.00;;;1.30
67758;BMP180;54562;47.620;18.786;2023-01-31T06:27:34;98369.20;;;1.30
67758;BMP180;54562;47.620;18.786;2023-01-31T06:30:39;98377.20;;;1.30
67758;BMP180;54562;47.620;18.786;2023-01-31T06:33:45;98378.80;;;1.30
67758;BMP180;54562;47.620;18.786;2023-01-31T06:36:52;98379.40;;;1.30
67758;BMP180;54562;47.620;18.786;2023-01-31T06:39:57;98375.60;;;1.30
67758;BMP180;54562;47.620;18.786;2023-01-31T06:43:03;98380.60;;;1.30
67758;BMP180;54562;47.620;18.786;2023-01-31T06:46:08;98386.00;;;1.32
67758;BMP180;54562;47.620;18.786;2023-01-31T06:49:13;98383.60;;;1.40
67758;BMP180;54562;47.620;18.786;2023-01-31T06:52:19;98389.40;;;1.40
67758;BMP180;54562;47.620;18.786;2023-01-31T06:55:24;98388.80;;;1.40
67758;BMP180;54562;47.620;18.786;2023-01-31T06:58:29;98399.40;;;1.40
67758;BMP180;54562;47.620;18.786;2023-01-31T07:01:37;98406.60;;;1.50
67758;BMP180;54562;47.620;18.786;2023-01-31T07:04:42;98410.20;;;1.50
67758;BMP180;54562;47.620;18.786;2023-01-31T07:07:47;98421.80;;;1.50
67758;BMP180;54562;47.620;18.786;2023-01-31T07:10:53;98433.00;;;1.54
67758;BMP180;54562;47.620;18.786;2023-01-31T07:13:59;98438.40;;;1.60
67758;BMP180;54562;47.620;18.786;2023-01-31T07:17:04;98435.80;;;1.60
67758;BMP180;54562;47.620;18.786;2023-01-31T07:20:12;98431.80;;;1.68
67758;BMP180;54562;47.620;18.786;2023-01-31T07:23:18;98432.20;;;1.70
67758;BMP180;54562;47.620;18.786;2023-01-31T07:26:23;98440.00;;;1.70
67758;BMP180;54562;47.620;18.786;2023-01-31T07:29:28;98439.00;;;1.70
67758;BMP180;54562;47.620;18.786;2023-01-31T07:32:34;98437.40;;;1.60
67758;BMP180;54562;47.620;18.786;2023-01-31T07:35:41;98449.60;;;1.60
67758;BMP180;54562;47.620;18.786;2023-01-31T07:38:47;98457.60;;;1.60
67758;BMP180;54562;47.620;18.786;2023-01-31T07:41:52;98458.00;;;1.60
67758;BMP180;54562;47.620;18.786;2023-01-31T07:44:57;98465.80;;;1.66
67758;BMP180;54562;47.620;18.786;2023-01-31T07:48:06;98472.00;;;1.72
67758;BMP180;54562;47.620;18.786;2023-01-31T07:51:12;98481.80;;;1.84
67758;BMP180;54562;47.620;18.786;2023-01-31T07:54:18;98488.60;;;1.90
67758;BMP180;54562;47.620;18.786;2023-01-31T07:57:23;98488.60;;;1.90
67758;BMP180;54562;47.620;18.786;2023-01-31T08:00:28;98498.20;;;1.90
67758;BMP180;54562;47.620;18.786;2023-01-31T08:03:52;98498.60;;;1.90
67758;BMP180;54562;47.620;18.786;2023-01-31T08:06:58;98498.40;;;1.90
67758;BMP180;54562;47.620;18.786;2023-01-31T08:10:09;98508.40;;;1.90
67758;BMP180;54562;47.620;18.786;2023-01-31T08:13:16;98507.60;;;1.92
67758;BMP180;54562;47.620;18.786;2023-01-31T08:16:22;98518.00;;;2.00
67758;BMP180;54562;47.620;18.786;2023-01-31T08:19:27;98522.00;;;2.10
67758;BMP180;54562;47.620;18.786;2023-01-31T08:22:33;98520.60;;;2.26
67758;BMP180;54562;47.620;18.786;2023-01-31T08:25:38;98536.80;;;2.36
67758;BMP180;54562;47.620;18.786;2023-01-31T08:28:46;98529.60;;;2.40
67758;BMP180;54562;47.620;18.786;2023-01-31T08:31:52;98532.20;;;2.50
67758;BMP180;54562;47.620;18.786;2023-01-31T08:34:58;98538.60;;;2.68
67758;BMP180;54562;47.620;18.786;2023-01-31T08:38:04;98536.80;;;2.70
67758;BMP180;54562;47.620;18.786;2023-01-31T08:41:23;98550.20;;;2.84
67758;BMP180;54562;47.620;18.786;2023-01-31T08:44:33;98557.00;;;2.90
67758;BMP180;54562;47.620;18.786;2023-01-31T08:47:41;98561.00;;;3.00
67758;BMP180;54562;47.620;18.786;2023-01-31T08:50:46;98565.20;;;3.00
67758;BMP180;54562;47.620;18.786;2023-01-31T08:53:52;98564.80;;;3.00
67758;BMP180;54562;47.620;18.786;2023-01-31T08:56:58;98579.40;;;3.00
67758;BMP180;54562;47.620;18.786;2023-01-31T09:00:06;98576.80;;;3.00
67758;BMP180;54562;47.620;18.786;2023-01-31T09:03:16;98581.80;;;3.10
67758;BMP180;54562;47.620;18.786;2023-01-31T09:06:24;98578.00;;;3.10
67758;BMP180;54562;47.620;18.786;2023-01-31T09:09:30;98572.60;;;3.10
67758;BMP180;54562;47.620;18.786;2023-01-31T09:12:43;98579.80;;;3.10
67758;BMP180;54562;47.620;18.786;2023-01-31T09:15:57;98588.00;;;3.10
67758;BMP180;54562;47.620;18.786;2023-01-31T09:19:03;98585.40;;;3.10
67758;BMP180;54562;47.620;18.786;2023-01-31T09:22:08;98592.00;;;3.08
67758;BMP180;54562;47.620;18.786;2023-01-31T09:25:13;98589.20;;;3.00
67758;BMP180;54562;47.620;18.786;2023-01-31T09:28:19;98588.40;;;3.00
67758;BMP180;54562;47.620;18.786;2023-01-31T09:31:25;98601.60;;;2.92
67758;BMP180;54562;47.620;18.786;2023-01-31T09:34:31;98597.60;;;2.90
67758;BMP180;54562;47.620;18.786;2023-01-31T09:37:38;98592.60;;;2.82
67758;BMP180;54562;47.620;18.786;2023-01-31T09:40:44;98595.20;;;2.80
67758;BMP180;54562;47.620;18.786;2023-01-31T09:43:56;98589.80;;;2.80
67758;BMP180;54562;47.620;18.786;2023-01-31T09:47:11;98594.80;;;2.90
67758;BMP180;54562;47.620;18.786;2023-01-31T09:50:21;98599.40;;;2.90
67758;BMP180;54562;47.620;18.786;2023-01-31T09:53:32;98607.60;;;3.12
67758;BMP180;54562;47.620;18.786;2023-01-31T09:56:47;98602.60;;;3.30
67758;BMP180;54562;47.620;18.786;2023-01-31T10:00:09;98607.40;;;3.30
67758;BMP180;54562;47.620;18.786;2023-01-31T10:07:08;98608.20;;;3.80
67758;BMP180;54562;47.620;18.786;2023-01-31T10:10:25;98609.00;;;4.00
67758;BMP180;54562;47.620;18.786;2023-01-31T10:13:37;98615.60;;;4.30
67758;BMP180;54562;47.620;18.786;2023-01-31T10:16:54;98617.80;;;4.50
67758;BMP180;54562;47.620;18.786;2023-01-31T10:20:08;98619.20;;;4.70
67758;BMP180;54562;47.620;18.786;2023-01-31T10:23:23;98620.80;;;4.80
67758;BMP180;54562;47.620;18.786;2023-01-31T10:26:33;98622.00;;;4.80
67758;BMP180;54562;47.620;18.786;2023-01-31T10:29:43;98605.00;;;4.68
67758;BMP180;54562;47.620;18.786;2023-01-31T10:32:58;98610.60;;;4.40
67758;BMP180;54562;47.620;18.786;2023-01-31T10:36:12;98605.00;;;4.30
67758;BMP180;54562;47.620;18.786;2023-01-31T10:39:23;98603.80;;;4.32
67758;BMP180;54562;47.620;18.786;2023-01-31T10:42:32;98604.80;;;4.20
67758;BMP180;54562;47.620;18.786;2023-01-31T10:45:38;98602.80;;;4.30
67758;BMP180;54562;47.620;18.786;2023-01-31T10:48:45;98597.80;;;4.40
67758;BMP180;54562;47.620;18.786;2023-01-31T10:52:11;98586.60;;;4.30
67758;BMP180;54562;47.620;18.786;2023-01-31T10:55:39;98594.00;;;4.22
67758;BMP180;54562;47.620;18.786;2023-01-31T10:58:50;98581.00;;;4.20
67758;BMP180;54562;47.620;18.786;2023-01-31T11:01:56;98577.00;;;4.20
67758;BMP180;54562;47.620;18.786;2023-01-31T11:05:03;98578.80;;;4.20
67758;BMP180;54562;47.620;18.786;2023-01-31T11:08:24;98576.20;;;4.20
67758;BMP180;54562;47.620;18.786;2023-01-31T11:11:30;98570.40;;;4.18
67758;BMP180;54562;47.620;18.786;2023-01-31T11:14:36;98565.60;;;4.20
67758;BMP180;54562;47.620;18.786;2023-01-31T11:17:44;98554.60;;;4.30
67758;BMP180;54562;47.620;18.786;2023-01-31T11:20:50;98549.60;;;4.30
67758;BMP180;54562;47.620;18.786;2023-01-31T11:24:04;98545.60;;;4.20
67758;BMP180;54562;47.620;18.786;2023-01-31T11:30:24;98549.20;;;4.20
67758;BMP180;54562;47.620;18.786;2023-01-31T11:33:42;98535.00;;;4.10
67758;BMP180;54562;47.620;18.786;2023-01-31T11:36:49;98538.00;;;4.20
67758;BMP180;54562;47.620;18.786;2023-01-31T11:40:00;98543.60;;;4.40
67758;BMP180;54562;47.620;18.786;2023-01-31T11:43:23;98541.40;;;4.60
67758;BMP180;54562;47.620;18.786;2023-01-31T11:46:29;98542.00;;;4.60
67758;BMP180;54562;47.620;18.786;2023-01-31T11:49:39;98548.40;;;4.70
67758;BMP180;54562;47.620;18.786;2023-01-31T11:52:44;98539.80;;;4.70
67758;BMP180;54562;47.620;18.786;2023-01-31T11:55:53;98544.00;;;4.74
67758;BMP180;54562;47.620;18.786;2023-01-31T11:59:04;98546.60;;;4.92
67758;BMP180;54562;47.620;18.786;2023-01-31T12:02:29;98542.00;;;5.20
67758;BMP180;54562;47.620;18.786;2023-01-31T12:05:41;98538.20;;;5.16
67758;BMP180;54562;47.620;18.786;2023-01-31T12:08:55;98531.00;;;5.00
67758;BMP180;54562;47.620;18.786;2023-01-31T12:12:08;98544.00;;;4.90
67758;BMP180;54562;47.620;18.786;2023-01-31T12:15:26;98546.20;;;5.00
67758;BMP180;54562;47.620;18.786;2023-01-31T12:18:49;98537.00;;;5.10
67758;BMP180;54562;47.620;18.786;2023-01-31T12:22:04;98537.00;;;5.20
67758;BMP180;54562;47.620;18.786;2023-01-31T12:25:24;98542.20;;;5.10
67758;BMP180;54562;47.620;18.786;2023-01-31T12:28:48;98546.80;;;5.00
67758;BMP180;54562;47.620;18.786;2023-01-31T12:32:11;98538.40;;;5.00
67758;BMP180;54562;47.620;18.786;2023-01-31T12:35:46;98544.60;;;5.10
67758;BMP180;54562;47.620;18.786;2023-01-31T12:39:29;98543.00;;;5.00
67758;BMP180;54562;47.620;18.786;2023-01-31T12:42:54;98550.60;;;4.90
67758;BMP180;54562;47.620;18.786;2023-01-31T12:46:13;98555.00;;;4.80
67758;BMP180;54562;47.620;18.786;2023-01-31T12:49:58;98562.00;;;4.70
67758;BMP180;54562;47.620;18.786;2023-01-31T12:53:31;98558.20;;;4.70
67758;BMP180;54562;47.620;18.786;2023-01-31T12:56:55;98548.20;;;4.80
67758;BMP180;54562;47.620;18.786;2023-01-31T13:00:25;98558.00;;;4.94
67758;BMP180;54562;47.620;18.786;2023-01-31T13:03:51;98562.00;;;5.00
67758;BMP180;54562;47.620;18.786;2023-01-31T13:07:04;98566.80;;;5.14
67758;BMP180;54562;47.620;18.786;2023-01-31T13:10:34;98567.40;;;5.32
67758;BMP180;54562;47.620;18.786;2023-01-31T13:13:42;98569.60;;;5.80
67758;BMP180;54562;47.620;18.786;2023-01-31T13:16:54;98570.60;;;6.20
67758;BMP180;54562;47.620;18.786;2023-01-31T13:20:13;98572.80;;;5.90
67758;BMP180;54562;47.620;18.786;2023-01-31T13:23:28;98583.00;;;5.54
67758;BMP180;54562;47.620;18.786;2023-01-31T13:26:41;98579.00;;;5.40
67758;BMP180;54562;47.620;18.786;2023-01-31T13:29:56;98575.20;;;5.40
67758;BMP180;54562;47.620;18.786;2023-01-31T13:33:15;98572.60;;;5.64
67758;BMP180;54562;47.620;18.786;2023-01-31T13:36:24;98582.20;;;6.50
67758;BMP180;54562;47.620;18.786;2023-01-31T13:39:38;98584.60;;;6.70
67758;BMP180;54562;47.620;18.786;2023-01-31T13:42:45;98586.40;;;6.06
67758;BMP180;54562;47.620;18.786;2023-01-31T13:45:55;98590.20;;;5.50
67758;BMP180;54562;47.620;18.786;2023-01-31T13:49:07;98605.20;;;5.00
67758;BMP180;54562;47.620;18.786;2023-01-31T13:52:21;98616.60;;;4.42
67758;BMP180;54562;47.620;18.786;2023-01-31T13:55:35;98610.20;;;4.10
67758;BMP180;54562;47.620;18.786;2023-01-31T13:58:43;98608.40;;;3.96
67758;BMP180;54562;47.620;18.786;2023-01-31T14:01:51;98609.20;;;3.80
67758;BMP180;54562;47.620;18.786;2023-01-31T14:05:48;98607.20;;;3.60
67758;BMP180;54562;47.620;18.786;2023-01-31T14:08:58;98617.40;;;3.50
67758;BMP180;54562;47.620;18.786;2023-01-31T14:15:48;98626.80;;;3.48
67758;BMP180;54562;47.620;18.786;2023-01-31T14:18:54;98621.40;;;3.48
67758;BMP180;54562;47.620;18.786;2023-01-31T14:25:41;98632.20;;;3.50
67758;BMP180;54562;47.620;18.786;2023-01-31T14:28:47;98629.60;;;3.50
67758;BMP180;54562;47.620;18.786;2023-01-31T14:31:56;98631.20;;;3.48
67758;BMP180;54562;47.620;18.786;2023-01-31T14:35:27;98631.20;;;3.40
67758;BMP180;54562;47.620;18.786;2023-01-31T14:39:03;98631.60;;;3.36
67758;BMP180;54562;47.620;18.786;2023-01-31T14:42:41;98626.80;;;3.30
67758;BMP180;54562;47.620;18.786;2023-01-31T14:46:18;98628.40;;;3.20
67758;BMP180;54562;47.620;18.786;2023-01-31T14:49:56;98626.00;;;3.00
67758;BMP180;54562;47.620;18.786;2023-01-31T14:53:24;98633.80;;;2.80
67758;BMP180;54562;47.620;18.786;2023-01-31T14:56:51;98626.40;;;2.70
67758;BMP180;54562;47.620;18.786;2023-01-31T15:00:02;98632.00;;;2.60
67758;BMP180;54562;47.620;18.786;2023-01-31T15:03:18;98627.60;;;2.56
67758;BMP180;54562;47.620;18.786;2023-01-31T15:06:27;98631.60;;;2.50
67758;BMP180;54562;47.620;18.786;2023-01-31T15:09:39;98628.80;;;2.50
67758;BMP180;54562;47.620;18.786;2023-01-31T15:12:56;98632.00;;;2.60
67758;BMP180;54562;47.620;18.786;2023-01-31T15:16:08;98633.40;;;2.60
67758;BMP180;54562;47.620;18.786;2023-01-31T15:19:17;98629.40;;;2.60
67758;BMP180;54562;47.620;18.786;2023-01-31T15:22:24;98629.00;;;2.60
67758;BMP180;54562;47.620;18.786;2023-01-31T15:25:34;98630.80;;;2.60
67758;BMP180;54562;47.620;18.786;2023-01-31T15:28:43;98630.00;;;2.60
67758;BMP180;54562;47.620;18.786;2023-01-31T15:31:53;98626.40;;;2.60
67758;BMP180;54562;47.620;18.786;2023-01-31T15:35:12;98624.60;;;2.60
67758;BMP180;54562;47.620;18.786;2023-01-31T15:38:27;98627.20;;;2.60
67758;BMP180;54562;47.620;18.786;2023-01-31T15:41:42;98626.60;;;2.60
67758;BMP180;54562;47.620;18.786;2023-01-31T15:44:47;98621.60;;;2.60
67758;BMP180;54562;47.620;18.786;2023-01-31T15:47:57;98625.40;;;2.60
67758;BMP180;54562;47.620;18.786;2023-01-31T15:51:03;98624.20;;;2.54
67758;BMP180;54562;47.620;18.786;2023-01-31T15:54:16;98617.20;;;2.50
67758;BMP180;54562;47.620;18.786;2023-01-31T15:57:24;98619.40;;;2.50
67758;BMP180;54562;47.620;18.786;2023-01-31T16:00:33;98617.20;;;2.50
67758;BMP180;54562;47.620;18.786;2023-01-31T16:03:51;98619.60;;;2.50
67758;BMP180;54562;47.620;18.786;2023-01-31T16:06:57;98621.00;;;2.50
67758;BMP180;54562;47.620;18.786;2023-01-31T16:10:03;98615.80;;;2.50
67758;BMP180;54562;47.620;18.786;2023-01-31T16:13:09;98624.60;;;2.50
67758;BMP180;54562;47.620;18.786;2023-01-31T16:16:15;98619.20;;;2.50
67758;BMP180;54562;47.620;18.786;2023-01-31T16:19:27;98618.20;;;2.50
67758;BMP180;54562;47.620;18.786;2023-01-31T16:22:32;98615.00;;;2.50
67758;BMP180;54562;47.620;18.786;2023-01-31T16:25:37;98621.40;;;2.50
67758;BMP180;54562;47.620;18.786;2023-01-31T16:28:44;98623.80;;;2.50
67758;BMP180;54562;47.620;18.786;2023-01-31T16:31:53;98629.60;;;2.48
67758;BMP180;54562;47.620;18.786;2023-01-31T16:35:02;98626.20;;;2.46
67758;BMP180;54562;47.620;18.786;2023-01-31T16:38:22;98629.20;;;2.50
67758;BMP180;54562;47.620;18.786;2023-01-31T16:41:45;98635.40;;;2.46
67758;BMP180;54562;47.620;18.786;2023-01-31T16:44:52;98639.60;;;2.50
67758;BMP180;54562;47.620;18.786;2023-01-31T16:48:21;98636.20;;;2.50
67758;BMP180;54562;47.620;18.786;2023-01-31T16:51:44;98629.60;;;2.50
67758;BMP180;54562;47.620;18.786;2023-01-31T16:55:00;98627.60;;;2.50
67758;BMP180;54562;47.620;18.786;2023-01-31T16:58:06;98622.00;;;2.50
67758;BMP180;54562;47.620;18.786;2023-01-31T17:01:15;98617.40;;;2.54
67758;BMP180;54562;47.620;18.786;2023-01-31T17:04:22;98616.60;;;2.60
67758;BMP180;54562;47.620;18.786;2023-01-31T17:07:51;98610.60;;;2.60
67758;BMP180;54562;47.620;18.786;2023-01-31T17:10:58;98612.40;;;2.60
67758;BMP180;54562;47.620;18.786;2023-01-31T17:14:03;98613.40;;;2.60
67758;BMP180;54562;47.620;18.786;2023-01-31T17:17:11;98607.40;;;2.60
67758;BMP180;54562;47.620;18.786;2023-01-31T17:20:25;98610.80;;;2.60
67758;BMP180;54562;47.620;18.786;2023-01-31T17:23:31;98616.00;;;2.60
67758;BMP180;54562;47.620;18.786;2023-01-31T17:26:36;98619.20;;;2.60
67758;BMP180;54562;47.620;18.786;2023-01-31T17:29:41;98625.40;;;2.62
67758;BMP180;54562;47.620;18.786;2023-01-31T17:32:47;98624.60;;;2.62
67758;BMP180;54562;47.620;18.786;2023-01-31T17:35:52;98615.20;;;2.60
67758;BMP180;54562;47.620;18.786;2023-01-31T17:38:57;98610.20;;;2.60
67758;BMP180;54562;47.620;18.786;2023-01-31T17:42:03;98610.80;;;2.60
67758;BMP180;54562;47.620;18.786;2023-01-31T17:45:15;98610.60;;;2.60
67758;BMP180;54562;47.620;18.786;2023-01-31T17:48:22;98608.60;;;2.60
67758;BMP180;54562;47.620;18.786;2023-01-31T17:51:31;98603.80;;;2.60
67758;BMP180;54562;47.620;18.786;2023-01-31T17:54:36;98604.00;;;2.58
67758;BMP180;54562;47.620;18.786;2023-01-31T17:57:41;98595.40;;;2.50
67758;BMP180;54562;47.620;18.786;2023-01-31T18:00:46;98595.20;;;2.50
67758;BMP180;54562;47.620;18.786;2023-01-31T18:03:52;98598.20;;;2.50
67758;BMP180;54562;47.620;18.786;2023-01-31T18:06:58;98592.00;;;2.40
67758;BMP180;54562;47.620;18.786;2023-01-31T18:10:08;98596.00;;;2.40
67758;BMP180;54562;47.620;18.786;2023-01-31T18:13:13;98597.40;;;2.40
67758;BMP180;54562;47.620;18.786;2023-01-31T18:16:19;98593.60;;;2.40
67758;BMP180;54562;47.620;18.786;2023-01-31T18:19:25;98595.00;;;2.40
67758;BMP180;54562;47.620;18.786;2023-01-31T18:22:30;98592.80;;;2.46
67758;BMP180;54562;47.620;18.786;2023-01-31T18:25:39;98593.40;;;2.48
67758;BMP180;54562;47.620;18.786;2023-01-31T18:28:44;98596.20;;;2.50
67758;BMP180;54562;47.620;18.786;2023-01-31T18:31:51;98588.20;;;2.50
67758;BMP180;54562;47.620;18.786;2023-01-31T18:34:58;98594.80;;;2.50
67758;BMP180;54562;47.620;18.786;2023-01-31T18:38:03;98600.60;;;2.50